createdAt,value
2018-01-29T00:02:10.559Z,99436.52
2018-01-29T00:04:38.140Z,99436.87
2018-01-29T00:07:05.749Z,99433.02
2018-01-29T00:09:33.315Z,99433.39
2018-01-29T00:12:00.903Z,99434.27
2018-01-29T00:14:28.553Z,99438.15
2018-01-29T00:16:56.030Z,99437.16
2018-01-29T00:19:23.527Z,99426.14
2018-01-29T00:21:51.005Z,99433.14
2018-01-29T00:24:18.533Z,99425.15
2018-01-29T00:26:46.021Z,99428.09
2018-01-29T00:29:13.538Z,99417.83
2018-01-29T00:31:42.028Z,99422.63
2018-01-29T00:34:09.490Z,99415.45
2018-01-29T00:36:36.998Z,99418.19
2018-01-29T00:39:04.484Z,99413.65
2018-01-29T00:41:31.989Z,99420.97
2018-01-29T00:43:59.515Z,99420.56
2018-01-29T00:46:27.211Z,99418.81
2018-01-29T00:48:55.217Z,99413.45
2018-01-29T00:51:22.682Z,99417.25
2018-01-29T00:53:50.186Z,99414.62
2018-01-29T00:56:17.672Z,99424.70
2018-01-29T00:58:45.209Z,99426.58
2018-01-29T01:01:12.778Z,99424.94
2018-01-29T01:03:40.691Z,99431.36
2018-01-29T01:06:08.164Z,99423.20
2018-01-29T01:08:35.665Z,99427.34
2018-01-29T01:11:04.006Z,99423.89
2018-01-29T01:13:31.561Z,99427.98
2018-01-29T01:15:59.156Z,99419.34
2018-01-29T01:18:26.627Z,99417.36
2018-01-29T01:20:54.124Z,99411.19
2018-01-29T01:23:21.617Z,99411.94
2018-01-29T01:25:49.105Z,99409.25
2018-01-29T01:28:16.605Z,99412.73
2018-01-29T01:30:44.079Z,99417.05
2018-01-29T01:33:11.593Z,99416.05
2018-01-29T01:35:39.085Z,99412.20
2018-01-29T01:38:06.634Z,99419.38
2018-01-29T01:40:34.201Z,99414.39
2018-01-29T01:43:01.685Z,99412.58
2018-01-29T01:45:29.198Z,99413.34
2018-01-29T01:47:56.684Z,99416.42
2018-01-29T01:50:24.198Z,99411.64
2018-01-29T01:52:51.675Z,99407.00
2018-01-29T01:55:19.218Z,99407.81
2018-01-29T01:57:47.312Z,99404.42
2018-01-29T02:00:14.856Z,99405.61
2018-01-29T02:02:42.421Z,99404.50
2018-01-29T02:05:10.057Z,99406.94
2018-01-29T02:07:37.635Z,99400.06
2018-01-29T02:10:05.118Z,99404.67
2018-01-29T02:12:32.674Z,99400.83
2018-01-29T02:15:00.168Z,99394.94
2018-01-29T02:17:27.649Z,99398.09
2018-01-29T02:19:55.177Z,99393.47
2018-01-29T02:22:22.662Z,99393.81
2018-01-29T02:24:50.172Z,99388.98
2018-01-29T02:27:17.658Z,99388.70
2018-01-29T02:29:45.164Z,99388.52
2018-01-29T02:32:12.635Z,99387.46
2018-01-29T02:34:40.230Z,99390.50
2018-01-29T02:37:07.705Z,99391.08
2018-01-29T02:39:35.307Z,99380.42
2018-01-29T02:42:02.799Z,99389.16
2018-01-29T02:44:30.285Z,99379.48
2018-01-29T02:46:57.822Z,99379.34
2018-01-29T02:49:25.297Z,99384.06
2018-01-29T02:51:52.800Z,99379.00
2018-01-29T02:54:20.294Z,99381.91
2018-01-29T02:56:47.803Z,99384.59
2018-01-29T02:59:15.298Z,99381.36
2018-01-29T03:01:42.784Z,99387.66
2018-01-29T03:04:10.285Z,99380.36
2018-01-29T03:06:37.771Z,99377.23
2018-01-29T03:09:05.291Z,99375.25
2018-01-29T03:11:32.944Z,99379.16
2018-01-29T03:14:00.513Z,99374.61
2018-01-29T03:16:28.887Z,99377.34
2018-01-29T03:18:56.449Z,99371.73
2018-01-29T03:21:23.962Z,99366.39
2018-01-29T03:23:55.762Z,99368.44
2018-01-29T03:26:23.275Z,99366.33
2018-01-29T03:28:50.751Z,99361.77
2018-01-29T03:31:18.421Z,99356.05
2018-01-29T03:33:46.023Z,99359.73
2018-01-29T03:36:17.596Z,99359.27
2018-01-29T03:38:45.245Z,99361.59
2018-01-29T03:41:12.837Z,99365.92
2018-01-29T03:43:40.372Z,99368.42
2018-01-29T03:46:08.008Z,99364.41
2018-01-29T03:48:35.618Z,99359.84
2018-01-29T03:51:03.098Z,99355.77
2018-01-29T03:53:30.603Z,99358.14
2018-01-29T03:55:58.134Z,99360.48
2018-01-29T03:58:26.898Z,99360.25
2018-01-29T04:00:54.651Z,99354.75
2018-01-29T04:03:22.140Z,99356.28
2018-01-29T04:05:49.712Z,99364.04
2018-01-29T04:08:17.327Z,99359.34
2018-01-29T04:10:44.795Z,99356.03
2018-01-29T04:13:12.293Z,99360.34
2018-01-29T04:15:39.769Z,99365.30
2018-01-29T04:18:07.271Z,99359.02
2018-01-29T04:20:34.749Z,99354.69
2018-01-29T04:23:02.247Z,99355.73
2018-01-29T04:25:29.730Z,99356.00
2018-01-29T04:27:57.239Z,99348.95
2018-01-29T04:30:24.716Z,99356.98
2018-01-29T04:32:52.205Z,99356.69
2018-01-29T04:35:19.798Z,99352.62
2018-01-29T04:37:47.307Z,99348.77
2018-01-29T04:40:14.804Z,99343.47
2018-01-29T04:42:42.287Z,99337.31
2018-01-29T04:45:09.787Z,99338.95
2018-01-29T04:47:37.300Z,99345.01
2018-01-29T04:50:04.782Z,99351.39
2018-01-29T04:52:32.302Z,99364.33
2018-01-29T04:55:00.406Z,99355.75
2018-01-29T04:57:27.909Z,99360.25
2018-01-29T04:59:55.421Z,99359.52
2018-01-29T05:02:22.936Z,99357.37
2018-01-29T05:04:51.103Z,99353.64
2018-01-29T05:07:19.380Z,99350.34
2018-01-29T05:09:47.070Z,99353.98
2018-01-29T05:12:14.615Z,99355.56
2018-01-29T05:14:42.113Z,99348.39
2018-01-29T05:17:09.777Z,99345.42
2018-01-29T05:19:37.390Z,99353.95
2018-01-29T05:22:04.980Z,99344.22
2018-01-29T05:24:32.513Z,99338.28
2018-01-29T05:27:00.093Z,99342.97
2018-01-29T05:29:27.566Z,99343.02
2018-01-29T05:31:55.071Z,99336.78
2018-01-29T05:34:22.878Z,99341.80
2018-01-29T05:36:56.160Z,99334.43
2018-01-29T05:39:23.667Z,99335.95
2018-01-29T05:41:51.189Z,99327.34
2018-01-29T05:44:18.701Z,99325.57
2018-01-29T05:46:46.210Z,99323.23
2018-01-29T05:49:14.585Z,99331.22
2018-01-29T05:51:42.067Z,99335.97
2018-01-29T05:54:09.633Z,99331.53
2018-01-29T05:56:37.154Z,99337.70
2018-01-29T05:59:04.696Z,99334.69
2018-01-29T06:01:32.298Z,99335.25
2018-01-29T06:03:59.910Z,99335.63
2018-01-29T06:06:27.534Z,99329.36
2018-01-29T06:08:55.004Z,99328.66
2018-01-29T06:11:23.241Z,99328.60
2018-01-29T06:13:51.322Z,99324.08
2018-01-29T06:16:18.855Z,99324.08
2018-01-29T06:18:46.399Z,99313.63
2018-01-29T06:21:13.946Z,99314.70
2018-01-29T06:23:41.551Z,99312.87
2018-01-29T06:26:09.190Z,99320.41
2018-01-29T06:28:36.706Z,99322.23
2018-01-29T06:31:04.218Z,99322.56
2018-01-29T06:33:31.703Z,99325.49
2018-01-29T06:35:59.564Z,99318.97
2018-01-29T06:38:27.394Z,99310.69
2018-01-29T06:40:54.878Z,99309.02
2018-01-29T06:43:22.390Z,99304.01
2018-01-29T06:45:49.870Z,99300.75
2018-01-29T06:48:17.378Z,99314.79
2018-01-29T06:50:44.970Z,99316.11
2018-01-29T06:53:12.788Z,99319.60
2018-01-29T06:55:40.292Z,99314.31
2018-01-29T06:58:08.013Z,99318.33
2018-01-29T07:00:35.547Z,99309.12
2018-01-29T07:03:03.032Z,99307.72
2018-01-29T07:05:30.668Z,99303.78
2018-01-29T07:07:58.173Z,99305.80
2018-01-29T07:10:25.679Z,99303.25
2018-01-29T07:12:53.204Z,99309.74
2018-01-29T07:15:20.713Z,99298.16
2018-01-29T07:17:48.249Z,99298.03
2018-01-29T07:20:17.295Z,99302.08
2018-01-29T07:22:44.812Z,99301.11
2018-01-29T07:25:12.317Z,99301.67
2018-01-29T07:27:39.868Z,99305.11
2018-01-29T07:30:07.400Z,99302.14
2018-01-29T07:32:34.892Z,99304.83
2018-01-29T07:35:02.385Z,99303.95
2018-01-29T07:37:29.907Z,99303.45
2018-01-29T07:39:57.391Z,99293.61
2018-01-29T07:42:24.934Z,99294.77
2018-01-29T07:44:52.411Z,99298.13
2018-01-29T07:47:19.946Z,99295.84
2018-01-29T07:49:47.449Z,99289.03
2018-01-29T07:52:14.946Z,99285.65
2018-01-29T07:54:42.483Z,99275.52
2018-01-29T07:57:10.449Z,99279.27
2018-01-29T07:59:38.050Z,99274.32
2018-01-29T08:02:05.542Z,99278.11
2018-01-29T08:04:33.038Z,99279.45
2018-01-29T08:07:00.560Z,99277.70
2018-01-29T08:09:28.089Z,99273.62
2018-01-29T08:11:55.595Z,99275.19
2018-01-29T08:14:23.204Z,99263.97
2018-01-29T08:16:50.787Z,99267.09
2018-01-29T08:19:18.323Z,99273.12
2018-01-29T08:21:45.906Z,99269.37
2018-01-29T08:24:13.407Z,99259.11
2018-01-29T08:26:41.881Z,99264.91
2018-01-29T08:29:09.422Z,99261.63
2018-01-29T08:31:37.187Z,99255.69
2018-01-29T08:34:05.256Z,99253.02
2018-01-29T08:36:32.833Z,99250.68
2018-01-29T08:39:00.335Z,99253.49
2018-01-29T08:41:27.853Z,99265.07
2018-01-29T08:43:55.346Z,99259.71
2018-01-29T08:46:23.614Z,99267.83
2018-01-29T08:48:51.323Z,99263.10
2018-01-29T08:51:18.899Z,99259.77
2018-01-29T08:53:46.497Z,99258.12
2018-01-29T08:56:14.094Z,99265.58
2018-01-29T08:58:41.711Z,99263.35
2018-01-29T09:01:09.313Z,99270.25
2018-01-29T09:03:36.797Z,99262.95
2018-01-29T09:06:04.313Z,99260.91
2018-01-29T09:08:31.867Z,99262.08
2018-01-29T09:10:59.376Z,99257.48
2018-01-29T09:13:26.868Z,99251.75
2018-01-29T09:15:54.450Z,99256.14
2018-01-29T09:18:21.943Z,99252.58
2018-01-29T09:20:49.462Z,99249.06
2018-01-29T09:23:16.953Z,99251.02
2018-01-29T09:25:44.533Z,99243.59
2018-01-29T09:28:12.036Z,99243.32
2018-01-29T09:30:39.529Z,99245.31
2018-01-29T09:33:08.115Z,99237.16
2018-01-29T09:35:35.619Z,99231.19
2018-01-29T09:38:03.167Z,99229.61
2018-01-29T09:40:30.787Z,99229.47
2018-01-29T09:42:58.382Z,99229.70
2018-01-29T09:45:25.896Z,99214.04
2018-01-29T09:47:53.416Z,99222.88
2018-01-29T09:50:20.973Z,99216.30
2018-01-29T09:52:48.450Z,99203.42
2018-01-29T09:55:16.000Z,99200.50
2018-01-29T09:57:43.513Z,99208.48
2018-01-29T10:00:11.015Z,99204.04
2018-01-29T10:02:38.539Z,99203.88
2018-01-29T10:05:06.640Z,99213.17
2018-01-29T10:07:34.164Z,99210.64
2018-01-29T10:10:01.745Z,99223.74
2018-01-29T10:12:29.275Z,99228.46
2018-01-29T10:14:56.856Z,99204.92
2018-01-29T10:17:24.470Z,99219.28
2018-01-29T10:19:52.034Z,99201.18
2018-01-29T10:22:19.520Z,99202.37
2018-01-29T10:24:47.045Z,99197.01
2018-01-29T10:27:14.569Z,99178.95
2018-01-29T10:29:42.095Z,99178.27
2018-01-29T10:32:09.648Z,99170.87
2018-01-29T10:34:37.140Z,99172.63
2018-01-29T10:37:04.649Z,99165.29
2018-01-29T10:39:32.145Z,99161.12
2018-01-29T10:41:59.652Z,99145.19
2018-01-29T10:44:27.141Z,99143.73
2018-01-29T10:46:54.683Z,99142.61
2018-01-29T10:49:22.853Z,99137.86
2018-01-29T10:51:50.346Z,99136.17
2018-01-29T10:54:18.539Z,99133.73
2018-01-29T10:56:46.018Z,99130.36
2018-01-29T10:59:13.538Z,99121.06
2018-01-29T11:01:46.677Z,99110.80
2018-01-29T11:04:14.204Z,99104.45
2018-01-29T11:06:41.714Z,99102.97
2018-01-29T11:09:09.246Z,99096.38
2018-01-29T11:11:36.761Z,99100.23
2018-01-29T11:14:04.245Z,99089.42
2018-01-29T11:16:31.764Z,99092.06
2018-01-29T11:18:59.253Z,99081.11
2018-01-29T11:21:26.824Z,99075.32
2018-01-29T11:23:54.324Z,99074.34
2018-01-29T11:26:21.833Z,99063.28
2018-01-29T11:28:49.677Z,99062.73
2018-01-29T11:31:17.241Z,99054.16
2018-01-29T11:33:44.831Z,99055.22
2018-01-29T11:36:12.319Z,99052.84
2018-01-29T11:38:39.821Z,99045.71
2018-01-29T11:41:07.405Z,99045.95
2018-01-29T11:43:34.991Z,99035.64
2018-01-29T11:46:02.623Z,99025.55
2018-01-29T11:48:30.209Z,99021.57
2018-01-29T11:50:57.797Z,99013.19
2018-01-29T11:53:25.371Z,99011.14
2018-01-29T11:55:53.120Z,99013.20
2018-01-29T11:58:20.657Z,99012.23
2018-01-29T12:00:48.145Z,99004.08
2018-01-29T12:03:15.703Z,99003.58
2018-01-29T12:05:43.212Z,98992.17
2018-01-29T12:08:10.721Z,98988.58
2018-01-29T12:10:38.217Z,98994.60
2018-01-29T12:13:05.739Z,98992.50
2018-01-29T12:15:33.289Z,98979.66
2018-01-29T12:18:01.269Z,98980.60
2018-01-29T12:20:28.827Z,98970.73
2018-01-29T12:22:56.395Z,98968.59
2018-01-29T12:25:24.048Z,98950.55
2018-01-29T12:27:51.610Z,98959.45
2018-01-29T12:30:19.231Z,98951.89
2018-01-29T12:32:47.049Z,98956.67
2018-01-29T12:35:14.524Z,98954.16
2018-01-29T12:37:42.049Z,98963.22
2018-01-29T12:40:09.650Z,98955.70
2018-01-29T12:42:37.141Z,98940.50
2018-01-29T12:45:04.618Z,98945.25
2018-01-29T12:47:32.136Z,98943.73
2018-01-29T12:49:59.771Z,98945.22
2018-01-29T12:52:27.327Z,98947.93
2018-01-29T12:54:54.871Z,98934.91
2018-01-29T12:57:22.396Z,98926.51
2018-01-29T12:59:49.923Z,98926.83
2018-01-29T13:02:17.442Z,98920.81
2018-01-29T13:04:44.954Z,98917.34
2018-01-29T13:07:12.462Z,98909.98
2018-01-29T13:09:39.947Z,98909.78
2018-01-29T13:12:07.532Z,98898.92
2018-01-29T13:14:35.038Z,98896.22
2018-01-29T13:17:02.582Z,98899.03
2018-01-29T13:19:30.352Z,98884.94
2018-01-29T13:21:58.133Z,98875.34
2018-01-29T13:24:25.638Z,98872.28
2018-01-29T13:26:53.116Z,98865.58
2018-01-29T13:29:20.633Z,98862.81
2018-01-29T13:31:48.585Z,98869.50
2018-01-29T13:34:16.701Z,98872.02
2018-01-29T13:36:44.694Z,98874.84
2018-01-29T13:39:12.180Z,98859.66
2018-01-29T13:41:39.702Z,98857.02
2018-01-29T13:44:07.191Z,98844.64
2018-01-29T13:46:34.736Z,98849.34
2018-01-29T13:49:02.260Z,98853.16
2018-01-29T13:51:29.822Z,98845.59
2018-01-29T13:53:57.393Z,98846.84
2018-01-29T13:56:24.920Z,98847.00
2018-01-29T13:58:52.445Z,98837.13
2018-01-29T14:01:19.934Z,98837.13
2018-01-29T14:03:47.455Z,98834.86
2018-01-29T14:06:15.112Z,98827.68
2018-01-29T14:08:42.642Z,98833.48
2018-01-29T14:11:10.113Z,98830.83
2018-01-29T14:13:37.661Z,98838.47
2018-01-29T14:16:05.153Z,98836.69
2018-01-29T14:18:32.650Z,98834.91
2018-01-29T14:21:00.151Z,98839.52
2018-01-29T14:23:27.680Z,98824.69
2018-01-29T14:25:56.014Z,98826.70
2018-01-29T14:28:23.541Z,98819.72
2018-01-29T14:30:51.119Z,98829.70
2018-01-29T14:33:18.687Z,98820.95
2018-01-29T14:35:46.858Z,98829.97
2018-01-29T14:38:14.359Z,98816.34
2018-01-29T14:40:41.879Z,98813.41
2018-01-29T14:43:09.399Z,98823.06
2018-01-29T14:45:37.133Z,98824.25
2018-01-29T14:48:04.666Z,98825.72
2018-01-29T14:50:32.183Z,98822.20
2018-01-29T14:52:59.678Z,98809.45
2018-01-29T14:55:27.214Z,98813.35
2018-01-29T14:57:54.702Z,98817.44
2018-01-29T15:00:22.255Z,98819.98
2018-01-29T15:02:49.826Z,98818.72
2018-01-29T15:05:17.598Z,98826.25
2018-01-29T15:07:45.195Z,98828.30
2018-01-29T15:10:12.688Z,98829.42
2018-01-29T15:12:40.209Z,98834.92
2018-01-29T15:15:07.696Z,98830.34
2018-01-29T15:17:35.210Z,98833.94
2018-01-29T15:20:02.718Z,98832.75
2018-01-29T15:22:30.202Z,98828.34
2018-01-29T15:24:57.804Z,98838.67
2018-01-29T15:27:25.323Z,98840.91
2018-01-29T15:29:53.460Z,98843.63
2018-01-29T15:32:20.995Z,98840.64
2018-01-29T15:34:48.854Z,98835.92
2018-01-29T15:39:43.789Z,98836.52
2018-01-29T15:42:11.374Z,98838.42
2018-01-29T15:44:39.336Z,98837.17
2018-01-29T15:47:06.869Z,98844.71
2018-01-29T15:49:34.388Z,98839.46
2018-01-29T15:52:01.923Z,98844.63
2018-01-29T15:54:29.432Z,98847.12
2018-01-29T15:56:56.985Z,98847.39
2018-01-29T15:59:24.553Z,98850.16
2018-01-29T16:01:52.058Z,98851.51
2018-01-29T16:04:19.638Z,98858.32
2018-01-29T16:06:47.154Z,98861.33
2018-01-29T16:09:14.741Z,98864.05
2018-01-29T16:11:42.832Z,98857.25
2018-01-29T16:14:10.385Z,98861.75
2018-01-29T16:16:37.929Z,98857.61
2018-01-29T16:19:05.397Z,98858.09
2018-01-29T16:21:32.909Z,98855.91
2018-01-29T16:24:00.438Z,98857.52
2018-01-29T16:26:28.001Z,98854.17
2018-01-29T16:28:55.574Z,98852.25
2018-01-29T16:31:23.174Z,98851.27
2018-01-29T16:36:17.513Z,98840.91
2018-01-29T16:38:45.019Z,98845.87
2018-01-29T16:41:13.016Z,98848.74
2018-01-29T16:43:40.562Z,98849.04
2018-01-29T16:46:08.098Z,98850.52
2018-01-29T16:48:35.583Z,98845.50
2018-01-29T16:51:03.076Z,98846.53
2018-01-29T16:53:30.560Z,98842.78
2018-01-29T16:55:58.072Z,98854.37
2018-01-29T16:58:25.581Z,98845.48
2018-01-29T17:00:53.085Z,98839.21
2018-01-29T17:03:20.766Z,98842.93
2018-01-29T17:05:48.277Z,98839.41
2018-01-29T17:08:15.824Z,98835.25
2018-01-29T17:10:43.446Z,98828.61
2018-01-29T17:13:11.087Z,98838.91
2018-01-29T17:15:38.683Z,98831.08
2018-01-29T17:18:06.230Z,98828.69
2018-01-29T17:20:33.883Z,98820.47
2018-01-29T17:23:01.379Z,98820.83
2018-01-29T17:25:28.891Z,98823.69
2018-01-29T17:27:57.058Z,98822.61
2018-01-29T17:30:24.570Z,98822.66
2018-01-29T17:32:52.088Z,98821.00
2018-01-29T17:35:20.376Z,98820.87
2018-01-29T17:37:48.030Z,98826.91
2018-01-29T17:40:15.578Z,98818.64
2018-01-29T17:42:43.143Z,98819.93
2018-01-29T17:45:10.628Z,98821.63
2018-01-29T17:47:38.154Z,98828.91
2018-01-29T17:50:05.656Z,98823.53
2018-01-29T17:52:33.168Z,98815.77
2018-01-29T17:55:00.698Z,98821.56
2018-01-29T17:57:28.274Z,98827.06
2018-01-29T17:59:55.819Z,98824.10
2018-01-29T18:02:25.777Z,98819.90
2018-01-29T18:04:54.606Z,98821.14
2018-01-29T18:07:22.226Z,98825.81
2018-01-29T18:10:00.781Z,98835.41
2018-01-29T18:12:28.314Z,98842.00
2018-01-29T18:14:56.724Z,98840.12
2018-01-29T18:17:25.018Z,98845.52
2018-01-29T18:19:57.605Z,98844.38
2018-01-29T18:22:26.434Z,98845.75
2018-01-29T18:24:54.084Z,98839.95
2018-01-29T18:33:01.742Z,98842.09
2018-01-29T18:35:29.283Z,98850.16
2018-01-29T18:37:58.089Z,98850.05
2018-01-29T18:40:26.066Z,98851.13
2018-01-29T18:42:53.666Z,98852.09
2018-01-29T18:45:25.958Z,98851.73
2018-01-29T18:47:54.127Z,98846.97
2018-01-29T18:50:23.972Z,98844.14
2018-01-29T18:52:51.557Z,98840.48
2018-01-29T18:55:20.154Z,98844.92
2018-01-29T18:57:47.922Z,98848.80
2018-01-29T19:00:16.825Z,98853.17
2018-01-29T19:02:48.615Z,98857.09
2018-01-29T19:05:16.145Z,98857.20
2018-01-29T19:35:46.765Z,98853.45
2018-01-29T19:38:14.732Z,98853.73
2018-01-29T19:40:42.248Z,98852.81
2018-01-29T19:43:18.643Z,98863.45
2018-01-29T19:45:48.635Z,98851.13
2018-01-29T19:48:19.061Z,98864.69
2018-01-29T19:50:46.653Z,98847.91
2018-01-29T19:53:14.246Z,98855.78
2018-01-29T19:55:44.182Z,98854.38
2018-01-29T19:58:12.653Z,98854.12
2018-01-29T20:14:34.563Z,98881.35
2018-01-29T20:17:02.805Z,98883.77
2018-01-29T20:19:30.335Z,98887.27
2018-01-29T20:21:57.889Z,98892.62
2018-01-29T20:24:56.406Z,98888.91
2018-01-29T20:27:56.010Z,98888.89
2018-01-29T20:55:24.219Z,98909.33
2018-01-29T20:57:57.858Z,98920.16
2018-01-29T22:14:10.199Z,98908.70
2018-01-29T22:16:37.687Z,98908.70
2018-01-29T22:19:05.182Z,98911.27
2018-01-29T22:21:32.688Z,98921.05
2018-01-29T22:24:00.190Z,98921.77
2018-01-29T22:26:27.708Z,98920.34
2018-01-29T22:28:55.288Z,98917.75
2018-01-29T22:31:22.784Z,98912.27
2018-01-29T22:33:50.292Z,98909.80
2018-01-29T22:36:17.794Z,98907.89
2018-01-29T22:38:45.280Z,98904.20
2018-01-29T22:41:12.794Z,98905.48
2018-01-29T22:43:40.365Z,98904.55
2018-01-29T22:46:07.883Z,98905.20
2018-01-29T22:48:35.417Z,98908.52
2018-01-29T22:51:03.370Z,98906.80
2018-01-29T22:53:30.860Z,98905.95
2018-01-29T22:55:58.892Z,98912.17
2018-01-29T22:58:26.413Z,98912.41
2018-01-29T23:00:53.918Z,98913.50
2018-01-29T23:03:21.435Z,98908.42
2018-01-29T23:05:48.929Z,98904.73
2018-01-29T23:08:16.462Z,98905.30
2018-01-29T23:10:43.942Z,98912.20
2018-01-29T23:13:11.475Z,98903.93
2018-01-29T23:15:39.378Z,98917.57
2018-01-29T23:18:06.950Z,98915.11
2018-01-29T23:20:34.990Z,98917.04
2018-01-29T23:23:02.484Z,98929.46
2018-01-29T23:25:30.000Z,98923.16
2018-01-29T23:27:57.542Z,98925.53
2018-01-29T23:30:25.112Z,98918.48
2018-01-29T23:32:52.704Z,98923.91
2018-01-29T23:35:20.301Z,98927.81
2018-01-29T23:37:47.899Z,98932.59
2018-01-29T23:40:15.393Z,98936.84
2018-01-29T23:42:44.274Z,98932.99
2018-01-29T23:45:11.773Z,98933.73
2018-01-29T23:47:39.300Z,98924.22
2018-01-29T23:50:06.801Z,98920.59
2018-01-29T23:52:34.341Z,98922.75
2018-01-29T23:55:01.983Z,98930.06
2018-01-29T23:57:29.592Z,98929.06
2018-01-29T23:59:57.102Z,98927.19
